Date,TemperatureHighF,TemperatureAvgF,TemperatureLowF,DewpointHighF,DewpointAvgF,DewpointLowF,HumidityHigh,HumidityAvg,HumidityLow,PressureMaxIn,PressureMinIn,WindSpeedMaxMPH,WindSpeedAvgMPH,GustSpeedMaxMPH,PrecipitationSumIn
2013-1-1,28,16,2,20,9,-1,90,77,58,25.72,25.63,27,8,30,0.00
2013-1-2,28,24,19,22,17,12,91,76,56,25.84,25.64,32,20,37,0.00
2013-1-3,30,16,-1,15,7,-6,85,70,46,25.85,25.74,16,6,23,0.00
2013-1-4,45,21,5,24,10,-1,83,66,39,25.74,25.61,9,3,12,0.00
2013-1-5,37,25,13,23,15,7,81,66,52,25.83,25.60,26,12,34,0.00
2013-1-6,47,25,8,22,13,4,82,64,28,25.81,25.51,20,9,23,0.00
2013-1-7,44,32,22,23,17,12,82,57,33,25.60,25.41,14,6,23,0.00
2013-1-8,47,37,23,25,22,14,69,56,38,25.77,25.39,35,14,43,0.00
2013-1-9,55,37,21,27,22,16,82,57,30,25.86,25.63,27,12,35,0.00
2013-1-10,50,36,28,41,30,20,97,79,62,25.62,25.11,32,11,36,0.00
2013-1-11,32,20,3,31,18,-1,97,91,79,25.44,25.00,26,13,34,0.00
2013-1-12,10,2,-10,4,-3,-14,84,79,74,25.64,25.44,26,10,33,0.00
2013-1-13,13,3,-8,5,-2,-12,86,81,70,25.73,25.61,17,6,17,0.00
2013-1-14,17,3,-7,8,-3,-11,84,75,54,25.77,25.67,15,7,16,0.00
2013-1-15,30,16,-4,21,8,-11,82,71,60,25.69,25.59,27,13,31,0.00
2013-1-16,43,32,23,26,21,16,77,64,47,25.89,25.61,32,14,42,0.00
2013-1-17,49,30,14,21,16,10,83,61,28,25.98,25.74,20,7,21,0.00
2013-1-18,56,39,20,17,14,11,75,40,17,25.73,25.58,30,12,34,0.00
2013-1-19,52,38,22,22,14,10,85,40,19,25.79,25.60,24,10,30,0.00
2013-1-20,38,24,12,20,16,9,89,73,41,25.86,25.71,26,9,34,0.00
2013-1-21,40,25,10,19,14,7,92,66,36,25.81,25.63,16,5,20,0.00
2013-1-22,53,36,20,14,11,5,70,40,15,25.70,25.60,26,10,31,0.00
2013-1-23,48,32,19,19,11,5,88,47,18,25.78,25.66,17,8,21,0.00
2013-1-24,64,38,19,29,21,13,92,60,15,25.74,25.51,38,14,40,0.00
2013-1-25,55,36,20,29,24,15,87,63,36,25.75,25.65,19,7,21,0.00
2013-1-26,60,41,24,30,26,20,86,58,27,25.65,25.40,17,5,23,0.00
2013-1-27,56,42,32,42,36,30,97,84,42,25.39,25.32,12,4,17,0.06
2013-1-28,37,31,25,35,30,24,97,94,89,25.37,25.26,23,10,24,0.00
2013-1-29,29,23,13,25,17,9,96,78,61,25.54,25.32,28,12,34,0.00
2013-1-30,34,20,1,22,12,-3,85,72,51,25.52,25.39,27,12,33,0.00
2013-1-31,27,23,15,22,16,8,87,76,66,25.73,25.49,28,12,31,0.00
2013-2-1,48,31,18,34,24,14,93,78,42,25.74,25.56,28,11,35,0.00
2013-2-2,47,33,19,27,20,13,88,63,27,25.84,25.74,31,12,37,0.00
2013-2-3,54,35,20,23,16,13,83,52,20,25.82,25.48,23,10,25,0.00
2013-2-4,52,36,17,20,16,11,82,49,22,25.56,25.43,26,9,33,0.00
2013-2-5,54,39,25,24,20,17,71,49,28,25.64,25.46,24,8,33,0.00
2013-2-6,54,42,30,29,23,16,83,50,26,25.67,25.41,23,9,28,0.00
2013-2-7,48,31,16,30,20,13,95,68,30,25.74,25.66,14,5,17,0.00
2013-2-8,50,34,22,23,19,15,77,56,32,25.65,25.33,20,8,26,0.00
2013-2-9,31,24,19,25,21,14,93,87,75,25.34,25.14,23,12,30,0.00
2013-2-10,30,24,16,24,18,8,93,79,62,25.61,25.14,42,25,55,0.00
2013-2-11,32,17,4,17,10,1,85,73,48,25.68,25.58,12,6,16,0.00
2013-2-12,39,24,6,16,10,1,83,59,35,25.62,25.57,31,13,34,0.00
2013-2-13,46,34,22,29,20,14,81,59,36,25.58,25.46,36,18,49,0.00
2013-2-14,32,26,14,27,17,8,89,70,42,25.85,25.59,34,15,42,0.00
2013-2-15,27,19,7,22,15,3,89,83,73,25.85,25.77,16,7,20,0.00
2013-2-16,51,37,22,24,21,16,85,57,30,25.76,25.52,29,15,40,0.00
2013-2-17,59,40,22,26,14,1,79,44,10,25.52,25.21,26,13,37,0.00
2013-2-18,35,28,11,25,18,6,86,69,43,25.68,25.39,36,18,44,0.00
2013-2-19,39,22,7,19,13,4,91,70,44,25.69,25.53,28,12,38,0.00
2013-2-20,20,17,13,17,12,6,90,81,69,25.53,25.39,25,17,31,0.00
2013-2-21,18,15,7,15,12,5,91,88,80,25.48,25.39,19,7,20,0.00
2013-2-22,32,20,7,24,16,4,93,82,64,25.52,25.46,17,6,20,0.00
2013-2-23,43,28,10,27,18,6,86,68,41,25.45,25.27,16,8,20,0.00
2013-2-24,34,29,24,29,27,23,96,93,74,25.67,25.36,25,11,26,0.00
2013-2-25,38,21,11,23,15,8,95,78,39,25.65,25.46,14,7,16,0.00
2013-2-26,36,25,10,28,19,5,91,79,61,25.65,25.40,26,13,30,0.00
2013-2-27,33,27,20,26,20,12,94,75,62,25.77,25.65,27,18,32,0.00
2013-2-28,38,27,13,24,17,8,81,69,50,25.78,25.72,23,11,27,0.00
2013-3-1,42,33,21,30,24,16,84,72,48,25.84,25.78,24,8,28,0.00
2013-3-2,56,43,35,36,31,29,83,66,41,25.80,25.60,25,12,32,0.00
2013-3-3,61,46,32,33,30,28,83,57,31,25.60,25.27,30,12,45,0.00
2013-3-4,39,29,18,30,15,6,79,57,33,25.75,25.32,37,22,45,0.00
2013-3-5,41,26,16,13,9,4,72,51,28,25.85,25.74,39,13,45,0.00
2013-3-6,50,32,16,26,20,13,88,64,38,25.74,25.47,22,12,26,0.00
2013-3-7,61,38,20,33,25,17,90,66,24,25.62,25.47,11,4,15,0.00
2013-3-8,48,35,24,32,28,21,94,78,52,25.63,25.33,15,5,17,0.00
2013-3-9,34,30,23,30,26,17,94,85,62,25.62,25.28,30,18,37,0.00
2013-3-10,37,27,21,21,17,12,89,69,36,25.70,25.59,23,12,26,0.00
2013-3-11,45,34,20,33,25,15,93,72,52,25.72,25.51,24,11,31,0.00
2013-3-12,41,32,25,25,19,14,87,62,36,25.85,25.72,28,12,37,0.00
2013-3-13,63,45,26,34,28,23,89,58,28,25.80,25.71,22,10,29,0.00
2013-3-14,70,53,38,33,29,25,74,46,19,25.83,25.66,19,7,24,0.00
2013-3-15,72,54,41,31,26,16,61,39,12,25.66,25.46,32,10,40,0.00
2013-3-16,50,40,30,32,29,27,92,65,43,25.62,25.47,28,10,34,0.00
2013-3-17,56,36,23,30,23,6,95,66,21,25.48,25.15,52,20,54,0.00
2013-3-18,41,30,16,23,13,8,88,53,29,25.58,25.45,23,8,30,0.00
2013-3-19,43,30,15,25,17,10,88,63,29,25.90,25.55,29,11,36,0.00
2013-3-20,54,33,10,25,17,7,93,59,24,25.90,25.38,25,11,34,0.00
2013-3-21,45,34,21,39,26,18,92,73,48,25.44,25.23,25,11,33,0.07
2013-3-22,42,32,22,27,21,11,89,67,29,25.53,25.39,18,9,26,0.00
2013-3-23,28,20,9,25,16,6,94,83,61,25.74,25.52,28,13,30,0.00
2013-3-24,27,15,2,15,7,-1,90,74,48,25.79,25.65,28,10,37,0.00
2013-3-25,35,18,3,14,9,0,88,70,34,25.83,25.76,18,7,21,0.00
2013-3-26,52,33,12,33,15,8,85,54,22,25.77,25.55,24,10,28,0.00
2013-3-27,57,41,28,32,29,24,92,65,35,25.70,25.60,19,6,24,0.00
2013-3-28,63,46,31,34,28,18,88,56,18,25.69,25.63,19,9,23,0.00
2013-3-29,66,49,30,35,30,23,83,52,26,25.70,25.59,21,7,31,0.00
2013-3-30,56,45,31,37,32,28,91,64,42,25.75,25.64,23,9,34,0.00
2013-3-31,64,44,26,37,25,17,92,57,17,25.75,25.55,30,12,40,0.00
2013-4-1,50,36,24,27,24,19,89,63,39,25.79,25.68,15,6,24,0.00
2013-4-2,52,38,26,32,28,23,90,68,43,25.74,25.68,16,8,23,0.00
2013-4-3,59,43,27,36,32,25,96,68,39,25.73,25.63,22,10,33,0.00
2013-4-4,64,50,33,36,33,30,87,56,30,25.74,25.60,21,9,27,0.00
2013-4-5,73,57,40,39,30,25,67,41,17,25.59,25.31,31,11,42,0.00
2013-4-6,63,51,38,38,30,22,84,49,21,25.51,25.41,27,12,38,0.00
2013-4-7,63,54,44,42,33,24,88,49,23,25.45,25.30,36,11,44,0.01
2013-4-8,63,43,20,43,32,18,96,71,27,25.41,25.22,46,14,51,0.15
2013-4-9,19,11,9,18,9,7,92,89,87,25.77,25.43,38,24,44,0.00
2013-4-10,21,15,7,18,12,4,91,86,78,25.74,25.51,24,14,31,0.00
2013-4-11,38,21,2,32,17,-1,93,84,74,25.50,25.36,31,12,41,0.00
2013-4-12,43,33,28,34,30,26,95,88,67,25.62,25.48,16,6,22,0.07
2013-4-13,48,39,26,41,35,25,97,87,72,25.59,25.13,22,9,35,0.04
2013-4-14,45,37,29,39,27,18,90,67,38,25.39,25.09,36,17,45,0.07
2013-4-15,29,26,22,25,22,17,93,82,67,25.64,25.38,14,8,19,0.00
2013-4-16,29,26,24,28,25,22,97,95,94,25.66,25.59,26,12,31,0.00
2013-4-17,29,25,20,28,23,19,97,95,93,25.70,25.59,20,11,23,0.00
2013-4-18,27,22,17,20,18,15,94,84,68,25.68,25.64,30,17,37,0.00
2013-4-19,48,36,21,33,26,16,80,66,47,25.64,25.55,22,11,27,0.00
2013-4-20,58,44,31,38,34,28,90,69,42,25.59,25.52,13,6,17,0.00
2013-4-21,57,46,34,40,36,31,91,70,38,25.65,25.57,21,9,30,0.00
2013-4-22,40,31,22,39,28,17,97,89,77,25.89,25.53,35,16,38,0.00
2013-4-23,38,27,20,18,16,14,87,66,38,25.87,25.71,20,8,26,0.00
2013-4-24,49,35,20,25,20,14,89,59,30,25.77,25.68,29,10,41,0.00
2013-4-25,67,47,23,28,17,4,87,41,9,25.76,25.50,20,9,25,0.00
2013-4-26,68,51,32,27,22,19,65,36,16,25.78,25.58,16,7,24,0.00
2013-4-27,74,56,34,29,24,17,68,35,13,25.78,25.57,20,8,26,0.00
2013-4-28,74,59,41,34,30,26,61,36,19,25.56,25.47,26,12,32,0.00
2013-4-29,78,61,41,40,31,21,72,39,12,25.54,25.22,26,9,33,0.00
2013-4-30,66,47,32,37,32,26,96,62,22,25.65,25.25,24,12,34,0.00
2013-5-1,32,28,23,31,27,21,97,96,93,26.11,25.63,25,14,31,0.00
2013-5-2,44,31,15,27,21,13,94,70,33,26.18,25.97,14,6,23,0.01
2013-5-3,56,42,25,30,25,19,88,56,29,25.95,25.69,10,4,17,0.00
2013-5-4,54,42,29,27,20,14,82,45,23,25.82,25.74,20,7,26,0.00
2013-5-5,58,45,25,29,23,17,80,46,26,25.83,25.71,14,4,19,0.00
2013-5-6,68,54,37,37,28,23,73,42,20,25.72,25.57,21,10,27,0.00
2013-5-7,69,53,37,48,42,35,91,68,39,25.59,25.51,18,7,23,0.03
2013-5-8,70,55,42,49,43,33,97,69,29,25.66,25.55,22,8,34,0.00
2013-5-9,63,53,42,45,41,35,88,65,36,25.77,25.67,23,8,28,0.00
2013-5-10,69,56,41,46,41,33,96,61,27,25.87,25.73,22,6,38,0.00
2013-5-11,66,52,38,40,35,25,80,54,33,25.98,25.79,12,5,17,0.00
2013-5-12,77,61,44,44,39,35,88,51,22,25.79,25.65,16,7,25,0.00
2013-5-13,88,68,49,46,40,34,71,41,15,25.69,25.58,13,6,18,0.00
2013-5-14,88,73,53,48,40,30,67,35,12,25.57,25.47,29,9,35,0.00
2013-5-15,79,66,53,48,42,36,67,44,26,25.61,25.50,21,10,29,0.00
2013-5-16,76,62,53,56,47,39,80,60,40,25.56,25.42,24,5,33,0.13
2013-5-17,86,69,49,60,52,46,92,61,27,25.51,25.36,25,12,37,0.00
2013-5-18,75,64,50,61,54,39,98,74,37,25.50,25.35,22,7,38,0.17
2013-5-19,56,52,50,51,48,44,94,87,68,25.45,25.38,25,13,36,0.09
2013-5-20,52,49,46,48,44,41,93,82,72,25.52,25.41,40,25,55,0.03
2013-5-21,61,51,43,43,39,32,90,66,36,25.59,25.50,34,19,44,0.00
2013-5-22,63,50,34,45,41,34,97,75,45,25.72,25.56,20,9,25,0.00
2013-5-23,64,54,45,49,46,43,96,76,56,25.77,25.65,30,16,40,0.00
2013-5-24,77,63,54,58,54,48,97,74,40,25.65,25.56,30,17,38,0.00
2013-5-25,86,69,57,59,53,38,94,63,19,25.61,25.48,20,10,23,0.00
2013-5-26,80,65,51,58,54,49,93,69,43,25.54,25.46,19,7,27,0.00
2013-5-27,80,64,48,60,51,32,91,67,22,25.49,25.31,34,10,43,0.00
2013-5-28,50,48,43,45,43,40,91,83,79,25.47,25.40,8,3,18,0.00
2013-5-29,64,58,48,54,49,45,93,74,55,25.31,25.22,29,10,35,0.32
2013-5-30,69,57,44,46,41,33,90,60,26,25.43,25.24,31,14,43,0.00
2013-5-31,64,52,42,44,39,33,94,63,34,25.60,25.39,35,19,45,0.05
2013-6-1,63,52,45,47,41,35,90,69,36,25.79,25.59,39,18,40,0.03
2013-6-2,79,60,38,46,41,36,91,56,26,25.80,25.48,26,12,33,0.00
2013-6-3,85,65,48,55,47,37,86,58,18,25.53,25.36,19,10,27,0.00
2013-6-4,72,58,47,51,45,39,93,65,36,25.79,25.54,21,10,27,0.07
2013-6-5,63,52,43,48,42,39,95,71,43,25.82,25.71,16,8,22,0.03
2013-6-6,73,59,41,50,44,39,94,63,31,25.74,25.64,16,6,19,0.00
2013-6-7,80,63,45,55,48,42,91,62,29,25.71,25.42,24,6,37,0.23
2013-6-8,72,62,50,54,49,41,90,65,35,25.62,25.33,30,14,41,0.03
2013-6-9,82,65,45,51,46,42,90,57,27,25.65,25.55,15,6,17,0.00
2013-6-10,97,75,57,53,46,33,70,41,11,25.54,25.44,19,9,56,0.00
2013-6-11,92,75,59,63,57,47,86,57,23,25.53,25.40,17,7,21,0.00
2013-6-12,84,68,56,60,52,46,93,62,27,25.75,25.54,25,9,28,0.00
2013-6-13,79,64,47,55,50,46,94,65,40,25.78,25.53,41,13,47,0.00
2013-6-14,84,72,60,56,52,47,84,53,28,25.64,25.49,34,12,43,0.00
2013-6-15,75,64,52,58,55,50,90,75,50,25.70,25.59,20,7,22,0.03
2013-6-16,88,69,55,61,51,29,97,62,12,25.73,25.59,33,13,37,0.00
2013-6-17,79,64,48,56,51,47,98,68,35,25.84,25.67,24,12,41,0.10
2013-6-18,84,68,52,54,51,47,93,60,29,25.77,25.55,24,11,36,0.35
2013-6-19,87,71,55,63,58,52,94,68,38,25.63,25.38,32,18,55,0.02
2013-6-20,83,72,56,64,54,35,96,61,19,25.52,25.40,30,11,43,0.00
2013-6-21,84,70,62,66,64,61,96,81,50,25.51,25.46,18,7,19,0.02
2013-6-26,94,83,69,54,48,40,53,34,15,25.64,25.59,13,6,17,0.00
2013-6-27,89,73,60,57,51,46,75,49,23,25.83,25.63,20,9,28,0.00
2013-6-28,88,75,60,57,53,49,79,49,29,25.86,25.76,21,8,23,0.00
2013-6-29,84,72,55,54,51,48,82,52,30,25.84,25.72,20,6,27,0.00
2013-6-30,80,68,53,51,48,45,80,52,31,25.82,25.77,16,5,23,0.00
2013-7-1,76,65,56,58,53,49,93,68,39,25.89,25.83,17,8,23,0.23
2013-7-2,79,66,50,51,47,42,88,54,31,25.86,25.75,16,8,22,0.00
2013-7-3,85,70,51,50,44,40,76,44,21,25.75,25.55,16,8,22,0.00
2013-7-4,88,72,55,54,48,42,76,47,20,25.57,25.55,29,7,37,0.00
2013-7-5,91,73,61,59,54,49,75,54,24,25.55,25.43,21,5,35,0.00
2013-7-6,88,74,61,59,56,51,84,56,29,25.59,25.46,17,7,22,0.00
2013-7-7,88,73,61,60,56,47,84,58,27,25.68,25.59,19,7,21,0.00
2013-7-8,91,71,58,63,58,54,93,67,30,25.70,25.61,24,5,28,0.00
2013-7-9,92,75,59,61,55,45,87,57,20,25.80,25.66,21,8,32,0.04
2013-7-10,85,72,63,64,60,52,94,69,34,25.87,25.67,31,13,37,0.19
2013-7-11,93,76,60,62,58,54,89,58,27,25.73,25.52,33,13,39,0.00
2013-7-12,92,77,64,65,59,51,92,60,28,25.69,25.53,26,9,32,0.08
2013-7-13,89,75,64,66,63,59,94,69,37,25.72,25.63,17,5,31,0.00
2013-7-14,75,68,65,66,63,59,96,84,71,25.82,25.66,22,11,26,0.00
2013-7-15,80,70,62,65,58,46,98,68,35,25.81,25.72,24,13,33,0.16
2013-7-16,81,69,54,59,54,49,88,62,37,25.87,25.77,24,12,33,0.00
2013-7-17,86,73,56,60,57,53,97,62,32,25.88,25.74,28,5,41,0.00
2013-7-18,94,77,60,64,57,53,88,56,26,25.76,25.61,15,8,35,0.27
2013-7-19,80,70,61,64,59,51,90,68,39,25.79,25.69,16,7,23,0.02
2013-7-20,83,70,58,62,56,44,94,66,28,25.70,25.53,25,9,28,0.00
2013-7-21,86,72,57,62,58,51,90,65,39,25.67,25.48,26,13,33,0.00
2013-7-22,90,75,62,65,59,51,91,62,30,25.62,25.53,24,9,28,0.00
2013-7-23,86,72,60,61,56,53,92,61,33,25.77,25.58,21,10,29,0.04
2013-7-24,83,67,58,65,59,52,96,79,39,25.82,25.69,29,10,40,0.65
2013-7-25,79,66,56,61,57,52,93,73,41,25.82,25.68,18,8,25,0.00
2013-7-26,78,66,57,60,56,50,95,71,45,25.93,25.75,27,7,31,0.02
2013-7-27,62,57,53,55,53,51,94,86,77,25.79,25.69,22,10,30,0.00
2013-7-28,66,59,55,60,56,53,95,89,78,25.69,25.59,17,12,26,0.08
2013-7-29,78,66,57,63,60,56,98,83,55,25.74,25.59,14,5,18,0.00
2013-7-30,88,73,59,63,56,45,96,62,23,25.81,25.71,16,4,31,0.02
2013-7-31,84,69,55,64,57,49,98,70,31,25.87,25.77,16,5,18,0.00
2013-8-1,87,72,59,63,58,50,87,64,41,25.79,25.55,31,12,44,0.00
2013-8-2,86,72,55,65,58,53,95,67,33,25.70,25.58,21,8,27,0.00
2013-8-3,68,65,61,66,64,60,98,95,90,25.83,25.68,28,14,30,0.05
2013-8-4,87,72,60,65,61,50,99,73,38,25.77,25.64,20,10,30,0.00
2013-8-5,85,72,58,65,60,54,94,68,35,25.70,25.60,20,8,24,0.00
2013-8-6,85,70,56,59,56,51,98,65,37,25.72,25.56,42,8,81,1.19
2013-8-7,71,63,56,62,57,55,98,81,58,25.73,25.64,26,8,33,0.00
2013-8-8,77,65,55,61,58,52,98,78,51,25.77,25.67,16,6,21,0.00
2013-8-9,80,67,52,58,51,43,91,62,27,25.82,25.74,21,8,26,0.00
2013-8-10,85,69,55,59,54,49,93,65,30,25.82,25.68,22,9,32,0.08
2013-8-11,81,70,59,60,55,50,89,62,34,25.81,25.71,32,6,44,0.12
2013-8-12,82,67,54,64,57,52,97,74,36,25.80,25.72,12,4,16,0.01
2013-8-13,82,65,53,59,54,49,91,69,32,25.85,25.74,25,8,30,0.03
2013-8-14,83,66,54,58,53,49,94,68,32,25.86,25.67,15,4,16,0.07
2013-8-15,84,67,54,57,52,45,88,62,26,25.77,25.69,14,5,31,0.00
2013-8-16,80,67,57,63,59,55,98,79,44,25.79,25.72,15,8,19,0.00
2013-8-17,84,68,55,66,61,55,98,81,45,25.77,25.65,20,9,24,0.00
2013-8-18,87,71,60,68,63,59,98,78,43,25.78,25.64,17,9,21,0.00
2013-8-19,93,75,56,60,54,45,94,55,19,25.70,25.61,18,7,24,0.00
2013-8-20,97,79,61,57,50,40,82,44,14,25.63,25.56,25,11,31,0.00
2013-8-21,89,75,63,61,58,55,87,57,36,25.74,25.61,21,9,24,0.00
2013-8-22,84,71,58,63,58,53,94,68,34,25.81,25.72,17,8,18,0.00
2013-8-23,90,74,62,65,60,54,98,67,31,25.76,25.55,20,10,28,0.00
2013-8-24,94,76,56,59,52,47,85,50,20,25.65,25.58,13,4,22,0.00
2013-8-25,95,79,61,56,52,49,76,44,22,25.70,25.65,9,4,25,0.00
2013-8-26,94,78,59,56,54,52,84,49,24,25.73,25.66,13,5,16,0.00
2013-8-27,100,78,63,57,54,52,76,48,21,25.70,25.63,14,4,21,0.00
2013-8-28,95,79,60,57,50,37,79,42,14,25.71,25.65,17,6,23,0.00
2013-8-29,96,79,57,56,50,45,78,42,18,25.73,25.67,19,6,22,0.01
2013-8-30,96,76,62,63,58,55,82,58,27,25.76,25.63,38,8,48,0.05
2013-8-31,94,75,60,63,55,46,92,57,19,25.74,25.60,22,10,28,0.00
2013-9-1,84,69,54,51,45,40,83,46,24,25.79,25.71,15,6,21,0.00
2013-9-2,91,73,55,57,51,44,67,48,26,25.76,25.63,24,10,29,0.00
2013-9-3,96,80,62,55,51,48,61,39,20,25.70,25.63,16,6,22,0.00
2013-9-4,96,76,62,66,57,53,85,55,24,25.81,25.68,28,8,52,0.48
2013-9-5,93,76,62,62,58,53,86,58,26,25.79,25.68,22,6,31,0.00
2013-9-6,96,79,67,61,56,49,74,49,21,25.73,25.63,20,6,24,0.00
2013-9-7,97,77,60,60,53,43,84,50,16,25.73,25.61,16,6,19,0.00
2013-9-8,96,78,58,56,47,40,70,38,15,25.64,25.46,16,7,26,0.00
2013-9-9,83,72,61,59,56,53,86,60,38,25.59,25.51,26,8,33,0.00
2013-9-10,71,66,61,60,58,55,90,76,58,25.81,25.75,12,6,14,0.16
2013-9-11,68,63,59,62,59,55,93,87,76,25.86,25.80,12,5,13,0.19
2013-9-12,72,65,60,62,58,52,97,79,50,25.91,25.83,21,9,27,0.00
2013-9-13,62,57,55,59,56,54,99,97,88,25.84,25.61,26,17,31,0.24
2013-9-14,80,65,56,64,59,56,99,83,48,25.64,25.51,32,7,34,1.63
2013-9-15,64,58,53,59,55,51,99,91,71,25.89,25.65,22,11,23,0.27
2013-9-16,59,55,51,56,53,51,98,94,87,25.88,25.68,25,15,29,0.00
2013-9-17,86,68,56,59,54,46,98,67,25,25.67,25.46,21,9,26,0.00
2013-9-18,87,71,56,56,51,44,88,57,23,25.51,25.41,20,8,27,0.04
2013-9-19,66,57,47,54,44,35,93,66,31,25.79,25.49,18,8,24,0.05
2013-9-20,73,56,39,46,41,35,93,61,26,25.79,25.64,12,4,16,0.00
2013-9-21,87,65,47,54,47,32,92,60,14,25.63,25.43,18,9,21,0.00
2013-9-22,85,67,52,57,52,46,92,64,27,25.43,25.21,21,8,40,0.35
2013-9-23,56,51,46,54,50,45,98,96,87,25.62,25.21,28,11,38,2.77
2013-9-24,73,56,42,51,43,38,98,67,32,25.72,25.53,15,6,18,0.01
2013-9-25,78,60,46,50,45,40,80,59,32,25.53,25.17,25,11,28,0.00
2013-9-26,74,60,48,53,47,43,85,66,43,25.42,25.21,22,13,29,0.00
2013-9-27,53,44,41,48,41,39,96,89,82,25.59,25.39,19,11,26,0.19
2013-9-28,60,43,33,39,34,30,95,74,33,25.70,25.58,25,11,32,0.00
2013-9-30,82,67,52,45,37,-100,74,41,20,25.50,0.00,19,-18,28,0.00
2013-10-1,71,56,43,44,37,26,83,52,27,25.69,25.50,18,8,22,0.00
2013-10-2,69,55,44,50,42,37,96,66,36,25.59,25.52,20,8,26,0.00
2013-10-3,52,49,46,46,43,38,93,80,68,25.52,25.44,20,10,21,0.00
2013-10-8,77,62,44,43,33,-100,74,40,15,29.67,0.00,15,-10,23,0.00
2013-10-9,56,46,40,44,39,36,84,78,66,29.70,29.52,19,11,26,0.00
2013-10-21,53,48,45,37,31,-100,71,58,50,29.91,0.00,16,-25,24,0.00
2013-10-22,50,48,47,36,35,35,64,61,57,29.92,29.91,11,9,21,0.00
2013-11-13,67,52,40,34,27,-100,66,44,20,29.98,0.00,13,-14,18,0.00
2013-11-14,55,43,33,38,34,31,92,72,42,29.88,29.66,22,6,26,0.00
2013-11-15,62,45,33,35,29,21,90,58,21,29.66,29.30,21,8,25,0.00
2013-11-16,51,40,28,30,26,23,87,60,35,29.37,29.20,17,7,18,0.00
2013-11-17,45,37,24,26,13,7,66,40,22,30.04,29.37,34,17,47,0.00
2013-11-18,59,37,22,25,20,15,77,56,24,30.09,29.93,16,7,22,0.00
2013-11-19,63,43,26,31,24,19,75,51,23,29.93,29.58,17,8,23,0.00
2013-11-20,58,44,19,32,29,17,92,57,32,29.98,29.58,26,10,37,0.00
2013-11-21,19,12,5,16,8,2,89,85,80,30.75,29.98,26,12,32,0.00
2013-11-22,28,13,-1,16,5,-4,88,73,50,30.79,30.69,10,5,15,0.00
2013-11-23,31,17,7,13,8,1,87,69,41,30.81,30.50,14,5,16,0.00
2013-11-24,36,25,16,27,19,11,93,79,69,30.49,30.02,22,10,28,0.00
2013-11-25,42,31,21,28,23,18,90,72,50,30.29,30.05,14,7,18,0.00
2013-11-26,36,27,20,24,21,17,91,79,58,30.40,30.29,11,5,15,0.00
2013-11-27,57,37,21,31,25,18,89,66,31,30.28,29.97,18,7,22,0.00
2013-11-28,42,31,20,26,22,17,91,71,44,30.21,30.10,19,7,21,0.00
2013-11-29,55,36,22,30,24,20,91,67,33,30.11,30.00,24,8,30,0.00
2013-11-30,54,37,26,28,25,22,84,63,34,30.09,30.00,25,7,28,0.00
2013-12-1,53,40,26,32,27,22,85,64,36,30.05,29.69,25,9,33,0.00
2013-12-2,59,47,35,33,29,26,75,51,29,29.68,29.38,38,11,42,0.00
2013-12-3,49,28,11,29,20,8,89,76,43,29.78,29.33,30,13,33,0.00
2013-12-4,11,4,-4,7,-2,-10,86,79,69,30.33,29.77,31,19,36,0.00
2013-12-5,5,-1,-10,-5,-9,-16,79,71,60,30.51,30.33,22,6,24,0.00
2013-12-6,7,-1,-9,1,-5,-14,86,81,74,30.62,30.50,13,5,15,0.00
2013-12-7,9,3,-5,3,-2,-9,85,81,75,30.58,30.14,28,15,33,0.00
2013-12-8,9,5,2,3,-2,-8,86,75,62,30.29,30.02,21,10,28,0.00
2013-12-9,22,10,-6,8,-1,-11,80,63,41,30.34,30.21,28,12,40,0.00
2013-12-10,36,22,9,20,12,3,90,66,43,30.37,30.05,34,10,39,0.00
2013-12-11,35,18,4,19,12,1,91,78,49,30.46,30.33,22,8,26,0.00
2013-12-12,52,30,14,21,15,8,79,58,27,30.39,29.92,11,5,12,0.00
2013-12-13,42,31,21,25,20,15,90,66,41,30.12,29.79,23,10,31,0.00
2013-12-14,42,34,25,27,23,20,92,66,42,30.20,30.09,22,12,26,0.00
2013-12-15,52,39,29,25,22,21,70,53,33,30.09,29.93,32,14,37,0.00
2013-12-16,56,45,33,23,20,19,64,39,24,30.09,29.91,35,16,47,0.00
2013-12-17,60,39,27,23,19,16,74,49,19,30.21,29.88,20,7,32,0.00
2013-12-18,63,47,33,22,19,16,63,36,17,29.87,29.55,23,9,35,0.00
2013-12-19,33,22,6,25,18,3,93,83,63,29.99,29.55,23,9,29,0.00
2013-12-20,31,15,7,19,10,3,87,81,62,29.99,29.78,15,6,20,0.00
2013-12-21,36,21,10,26,16,6,90,80,54,29.95,29.70,21,8,28,0.00
2013-12-22,33,21,8,26,16,5,93,81,56,30.34,29.94,19,8,27,0.00
2013-12-23,32,18,0,23,13,-3,91,81,64,30.40,30.16,16,8,20,0.00
2013-12-24,41,31,17,32,25,14,89,78,64,30.25,29.96,31,13,43,0.00
2013-12-25,39,28,18,19,15,12,85,60,37,30.39,30.18,22,12,29,0.00
2013-12-26,49,34,19,20,15,10,77,48,30,30.25,30.14,24,11,30,0.00
2013-12-27,57,38,25,25,21,17,74,53,28,30.18,29.94,20,8,28,0.00
2013-12-28,52,31,10,26,19,5,81,63,29,30.22,29.75,30,16,41,0.00
2013-12-29,34,18,2,16,9,-2,84,68,43,30.31,30.02,16,7,26,0.00
2013-12-30,42,32,20,23,17,12,72,54,40,30.16,30.01,39,15,44,0.00
2013-12-31,52,38,20,27,21,13,72,52,33,30.03,29.84,33,12,44,0.00
2014-1-1,42,26,14,35,23,10,94,90,69,30.27,29.84,36,11,45,0.00
2014-1-2,39,26,8,25,18,5,88,75,53,30.33,30.01,12,7,15,0.00